Time;durP1;ratioP1;P1;durP2;ratioP2;P2;SDS_P1;SDS_P2;PMS_P1;PMS_P2;Temp;Humidity;BMP_temperature;BMP_pressure;BME280_temperature;BME280_humidity;BME280_pressure;Samples;Min_cycle;Max_cycle;Signal;HPM_P1;HPM_P2
2023/10/08 00:02:56;;;;;;;5.03;1.98;;;;;;;;;;5063549;28;20491;-93
2023/10/08 00:05:22;;;;;;;4.72;2.10;;;;;;;;;;5057745;28;20036;-92
2023/10/08 00:07:47;;;;;;;5.22;1.98;;;;;;;;;;5057276;28;20021;-92
2023/10/08 00:10:13;;;;;;;7.40;2.38;;;;;;;;;;5057561;28;20029;-92
2023/10/08 00:12:41;;;;;;;5.13;2.00;;;;;;;;;;5057474;28;20020;-92
2023/10/08 00:15:10;;;;;;;6.40;2.10;;;;;;;;;;5057296;28;20028;-94
2023/10/08 00:17:35;;;;;;;5.13;2.00;;;;;;;;;;5056867;28;20020;-92
2023/10/08 00:20:00;;;;;;;7.35;2.30;;;;;;;;;;5057288;28;20028;-92
2023/10/08 00:22:26;;;;;;;4.03;1.90;;;;;;;;;;5057373;28;20036;-92
2023/10/08 00:24:58;;;;;;;7.45;2.10;;;;;;;;;;5057449;28;20483;-92
2023/10/08 00:27:23;;;;;;;6.07;2.03;;;;;;;;;;5052785;28;20024;-91
2023/10/08 00:29:56;;;;;;;7.65;2.15;;;;;;;;;;5057249;28;20031;-92
2023/10/08 00:32:22;;;;;;;8.20;2.40;;;;;;;;;;5057633;28;20468;-91
2023/10/08 00:34:47;;;;;;;6.32;2.20;;;;;;;;;;5058739;28;20364;-91
2023/10/08 00:37:16;;;;;;;6.45;2.05;;;;;;;;;;5057736;28;20032;-92
2023/10/08 00:39:42;;;;;;;6.40;2.20;;;;;;;;;;5058032;28;20071;-93
2023/10/08 00:42:12;;;;;;;6.82;2.33;;;;;;;;;;5057305;28;20013;-92
2023/10/08 00:44:47;;;;;;;8.65;2.45;;;;;;;;;;5057148;28;20044;-93
2023/10/08 00:47:12;;;;;;;9.27;2.25;;;;;;;;;;5057745;28;20020;-91
2023/10/08 00:49:54;;;;;;;4.32;1.77;;;;;;;;;;5056554;28;20085;-91
2023/10/08 00:52:26;;;;;;;7.68;2.40;;;;;;;;;;5056908;28;20143;-92
2023/10/08 00:57:29;;;;;;;10.57;2.10;;;;;;;;;;5074441;28;20020;-92
2023/10/08 00:59:57;;;;;;;11.50;2.33;;;;;;;;;;5057025;28;20588;-92
2023/10/08 01:02:27;;;;;;;11.68;2.20;;;;;;;;;;5056717;28;20027;-92
2023/10/08 01:04:54;;;;;;;7.40;2.60;;;;;;;;;;5056356;28;20441;-93
2023/10/08 01:07:19;;;;;;;7.07;1.73;;;;;;;;;;5055843;28;20016;-92
2023/10/08 01:09:50;;;;;;;4.60;2.10;;;;;;;;;;5053080;28;20025;-93
2023/10/08 01:14:49;;;;;;;4.82;1.83;;;;;;;;;;5074636;28;20024;-94
2023/10/08 01:17:19;;;;;;;8.13;2.53;;;;;;;;;;5055738;28;20016;-93
2023/10/08 01:19:50;;;;;;;9.20;2.30;;;;;;;;;;5055727;28;20116;-92
2023/10/08 01:22:19;;;;;;;5.22;2.30;;;;;;;;;;5056267;28;20051;-92
2023/10/08 01:24:48;;;;;;;6.63;2.47;;;;;;;;;;5056332;28;20353;-93
2023/10/08 01:27:20;;;;;;;9.30;2.47;;;;;;;;;;5051584;28;20488;-93
2023/10/08 01:29:45;;;;;;;5.07;1.77;;;;;;;;;;5053684;28;20024;-93
2023/10/08 01:32:11;;;;;;;6.10;2.05;;;;;;;;;;5056311;28;20073;-91
2023/10/08 01:34:37;;;;;;;11.50;2.38;;;;;;;;;;5056021;28;20120;-91
2023/10/08 01:37:08;;;;;;;7.25;2.35;;;;;;;;;;5055282;28;20031;-92
2023/10/08 01:39:34;;;;;;;7.00;2.30;;;;;;;;;;5056270;28;20024;-92
2023/10/08 01:42:00;;;;;;;5.78;2.38;;;;;;;;;;5056665;28;20031;-92
2023/10/08 01:44:25;;;;;;;7.15;2.45;;;;;;;;;;5056578;28;20016;-92
2023/10/08 01:46:50;;;;;;;6.43;2.42;;;;;;;;;;5056207;28;20020;-92
2023/10/08 01:49:21;;;;;;;6.43;2.30;;;;;;;;;;5056900;28;20023;-92
2023/10/08 01:51:46;;;;;;;4.95;2.00;;;;;;;;;;5056268;28;20116;-91
2023/10/08 01:54:14;;;;;;;9.38;2.85;;;;;;;;;;5055072;28;20025;-91
2023/10/08 01:56:42;;;;;;;8.15;2.35;;;;;;;;;;5055277;28;20089;-92
2023/10/08 01:59:13;;;;;;;6.82;2.00;;;;;;;;;;5055497;28;20112;-91
2023/10/08 02:01:39;;;;;;;5.38;2.30;;;;;;;;;;5057654;28;20085;-91
2023/10/08 02:04:07;;;;;;;5.75;2.40;;;;;;;;;;5058823;28;20104;-91
2023/10/08 02:06:32;;;;;;;9.25;2.33;;;;;;;;;;5075190;28;20016;-91
2023/10/08 02:08:58;;;;;;;10.05;2.40;;;;;;;;;;5059918;28;20020;-91
2023/10/08 02:11:24;;;;;;;9.80;2.50;;;;;;;;;;5059205;28;20026;-92
2023/10/08 02:13:50;;;;;;;5.90;2.08;;;;;;;;;;5093102;28;20048;-91
2023/10/08 02:16:19;;;;;;;9.80;2.60;;;;;;;;;;5059452;28;20070;-92
2023/10/08 02:18:47;;;;;;;11.50;2.30;;;;;;;;;;5060104;28;20021;-92
2023/10/08 02:21:13;;;;;;;11.40;2.28;;;;;;;;;;5060130;28;20060;-91
2023/10/08 02:23:38;;;;;;;9.23;2.17;;;;;;;;;;5046193;28;20027;-91
2023/10/08 02:26:05;;;;;;;7.82;2.22;;;;;;;;;;5059043;28;20111;-92
2023/10/08 02:28:30;;;;;;;8.40;2.33;;;;;;;;;;5060514;28;20111;-92
2023/10/08 02:30:56;;;;;;;7.78;2.53;;;;;;;;;;5060047;28;20055;-92
2023/10/08 02:33:21;;;;;;;5.07;2.15;;;;;;;;;;5059656;28;20028;-92
2023/10/08 02:35:47;;;;;;;5.32;2.40;;;;;;;;;;5059363;28;20025;-92
2023/10/08 02:38:16;;;;;;;9.75;2.55;;;;;;;;;;5060468;28;20425;-92
2023/10/08 02:40:46;;;;;;;8.38;2.65;;;;;;;;;;5060648;28;20120;-92
2023/10/08 02:43:14;;;;;;;7.82;2.72;;;;;;;;;;5059476;28;20020;-92
2023/10/08 02:45:40;;;;;;;5.45;2.13;;;;;;;;;;5059451;28;20025;-92
2023/10/08 02:48:11;;;;;;;6.85;2.35;;;;;;;;;;5060263;28;20028;-93
2023/10/08 02:50:39;;;;;;;11.70;2.83;;;;;;;;;;5060536;28;20023;-93
2023/10/08 02:53:10;;;;;;;7.75;2.22;;;;;;;;;;5060995;28;20070;-92
2023/10/08 02:55:36;;;;;;;7.50;2.17;;;;;;;;;;5059813;28;20063;-92
2023/10/08 02:58:04;;;;;;;10.02;2.33;;;;;;;;;;5060252;28;20046;-92
2023/10/08 03:00:34;;;;;;;6.72;2.47;;;;;;;;;;5059844;28;20051;-92
2023/10/08 03:03:01;;;;;;;7.72;2.38;;;;;;;;;;5059811;28;20062;-92
2023/10/08 03:05:31;;;;;;;6.63;2.22;;;;;;;;;;5059686;28;20016;-92
2023/10/08 03:07:57;;;;;;;10.85;2.30;;;;;;;;;;5046090;28;20447;-92
2023/10/08 03:10:23;;;;;;;9.15;2.28;;;;;;;;;;5059181;28;20024;-92
2023/10/08 03:12:55;;;;;;;7.15;2.17;;;;;;;;;;5058522;28;20444;-91
2023/10/08 03:15:30;;;;;;;6.65;2.50;;;;;;;;;;5058928;28;20491;-92
2023/10/08 03:17:57;;;;;;;6.88;2.25;;;;;;;;;;5056362;28;20028;-92
2023/10/08 03:20:39;;;;;;;10.57;2.40;;;;;;;;;;5058944;28;20038;-93
2023/10/08 03:23:33;;;;;;;6.20;2.30;;;;;;;;;;5058064;28;20023;-92
2023/10/08 03:25:58;;;;;;;9.68;2.38;;;;;;;;;;5075537;28;20024;-92
2023/10/08 03:28:29;;;;;;;10.10;2.60;;;;;;;;;;5058834;28;20017;-91
2023/10/08 03:31:04;;;;;;;8.77;2.65;;;;;;;;;;5058975;28;20383;-91
2023/10/08 03:33:36;;;;;;;5.53;2.10;;;;;;;;;;5058940;28;20108;-91
2023/10/08 03:36:09;;;;;;;;;;;;;;;;;;5059010;28;20051;-92
2023/10/08 03:38:52;;;;;;;;;;;;;;;;;;5058147;28;19924;-92
2023/10/08 03:41:28;;;;;;;6.47;2.47;;;;;;;;;;5058314;28;20338;-92
2023/10/08 03:44:01;;;;;;;6.95;2.65;;;;;;;;;;5062138;28;20039;-91
2023/10/08 03:46:26;;;;;;;10.77;2.55;;;;;;;;;;5058445;28;20108;-92
2023/10/08 03:48:52;;;;;;;6.30;2.55;;;;;;;;;;5058555;28;20049;-92
2023/10/08 03:51:21;;;;;;;14.88;2.47;;;;;;;;;;5058835;28;20102;-91
2023/10/08 03:54:01;;;;;;;8.85;2.88;;;;;;;;;;5058121;28;20016;-91
2023/10/08 03:56:31;;;;;;;8.32;2.70;;;;;;;;;;5052416;28;20054;-92
2023/10/08 03:59:00;;;;;;;8.48;2.90;;;;;;;;;;5048806;28;20031;-92
2023/10/08 04:01:30;;;;;;;9.20;2.90;;;;;;;;;;5059375;28;20023;-92
2023/10/08 04:03:58;;;;;;;9.43;2.58;;;;;;;;;;5058723;28;20017;-92
2023/10/08 04:14:18;;;;;;;6.82;2.47;;;;;;;;;;5075600;28;20506;-92
2023/10/08 04:16:44;;;;;;;8.10;2.40;;;;;;;;;;5057967;28;20021;-90
2023/10/08 04:19:09;;;;;;;9.23;2.38;;;;;;;;;;5057539;28;20024;-92
2023/10/08 04:21:35;;;;;;;7.03;2.42;;;;;;;;;;5057458;28;20360;-92
2023/10/08 04:24:04;;;;;;;4.47;2.30;;;;;;;;;;5057006;28;20016;-91
2023/10/08 04:26:32;;;;;;;6.38;2.35;;;;;;;;;;5057254;28;20440;-92
2023/10/08 04:29:01;;;;;;;8.13;2.35;;;;;;;;;;5057155;28;20036;-92
2023/10/08 04:31:36;;;;;;;6.65;2.78;;;;;;;;;;5056938;28;20020;-91
2023/10/08 04:34:07;;;;;;;5.57;2.10;;;;;;;;;;5057228;28;20058;-91
2023/10/08 04:36:32;;;;;;;9.10;3.05;;;;;;;;;;5056406;28;20025;-92
2023/10/08 04:39:04;;;;;;;5.13;2.10;;;;;;;;;;5052419;28;20498;-92
2023/10/08 04:41:29;;;;;;;7.70;2.47;;;;;;;;;;5068942;28;20024;-91
2023/10/08 04:43:55;;;;;;;6.35;2.50;;;;;;;;;;5056957;28;20024;-91
2023/10/08 04:49:19;;;;;;;5.15;2.53;;;;;;;;;;5075056;28;20042;-91
2023/10/08 04:51:45;;;;;;;12.48;2.92;;;;;;;;;;5056583;28;20036;-92
2023/10/08 04:54:18;;;;;;;11.60;2.55;;;;;;;;;;5057025;28;20047;-91
2023/10/08 04:56:43;;;;;;;;;;;;;;;;;;5057988;28;20108;-91
2023/10/08 04:59:11;;;;;;;7.68;2.55;;;;;;;;;;5057209;28;19962;-92
2023/10/08 05:02:02;;;;;;;7.57;2.80;;;;;;;;;;5056994;28;20478;-91
2023/10/08 05:04:32;;;;;;;8.98;3.00;;;;;;;;;;5045959;28;20452;-92
2023/10/08 05:07:01;;;;;;;8.07;3.22;;;;;;;;;;5057671;28;20103;-92
2023/10/08 05:09:39;;;;;;;12.30;3.08;;;;;;;;;;5057548;28;20040;-92
2023/10/08 05:20:44;;;;;;;8.43;2.85;;;;;;;;;;5042926;28;20056;-92
2023/10/08 05:28:30;;;;;;;11.15;3.17;;;;;;;;;;5060571;28;20359;-91
2023/10/08 05:34:14;;;;;;;6.85;2.40;;;;;;;;;;4974101;28;20038;-91
2023/10/08 05:37:10;;;;;;;5.82;2.50;;;;;;;;;;5073059;28;20550;-92
2023/10/08 05:42:19;;;;;;;8.52;2.72;;;;;;;;;;5073095;28;20122;-91
2023/10/08 05:52:53;;;;;;;5.25;2.35;;;;;;;;;;5073831;28;20031;-92
2023/10/08 05:55:25;;;;;;;8.40;3.13;;;;;;;;;;5055775;28;20016;-91
2023/10/08 05:58:02;;;;;;;7.50;2.65;;;;;;;;;;5054584;28;20041;-91
2023/10/08 06:00:46;;;;;;;6.30;2.90;;;;;;;;;;5055659;28;20075;-91
2023/10/08 06:06:22;;;;;;;8.38;2.80;;;;;;;;;;5074451;28;20108;-91
2023/10/08 06:09:04;;;;;;;9.15;3.28;;;;;;;;;;5073273;28;20554;-91
2023/10/08 06:11:56;;;;;;;6.75;3.08;;;;;;;;;;5058198;28;20035;-92
2023/10/08 06:14:52;;;;;;;8.90;2.72;;;;;;;;;;5056989;28;20405;-91
2023/10/08 06:17:33;;;;;;;7.43;2.90;;;;;;;;;;5056972;28;20020;-91
2023/10/08 06:20:13;;;;;;;7.13;2.80;;;;;;;;;;5056043;28;20025;-91
2023/10/08 06:22:41;;;;;;;;;;;;;;;;;;5057391;28;20028;-91
2023/10/08 06:25:18;;;;;;;8.85;3.03;;;;;;;;;;5056842;28;20356;-92
2023/10/08 06:27:44;;;;;;;5.28;2.60;;;;;;;;;;5055413;28;20100;-90
2023/10/08 06:30:16;;;;;;;6.88;2.63;;;;;;;;;;5055807;28;20021;-90
2023/10/08 06:32:41;;;;;;;10.98;3.08;;;;;;;;;;5054853;28;20101;-91
2023/10/08 06:35:07;;;;;;;9.63;3.00;;;;;;;;;;5055280;28;20020;-92
2023/10/08 06:37:34;;;;;;;8.95;3.08;;;;;;;;;;5055356;28;20024;-91
2023/10/08 06:40:00;;;;;;;6.03;2.70;;;;;;;;;;5056328;28;20017;-91
2023/10/08 06:42:27;;;;;;;8.30;2.80;;;;;;;;;;5054790;28;20052;-91
2023/10/08 06:44:53;;;;;;;14.20;3.00;;;;;;;;;;5056657;28;20383;-91
2023/10/08 06:47:18;;;;;;;4.40;2.30;;;;;;;;;;5059409;28;20016;-91
2023/10/08 06:49:44;;;;;;;8.52;3.08;;;;;;;;;;5058320;28;20032;-92
2023/10/08 06:52:12;;;;;;;10.10;2.75;;;;;;;;;;5060318;28;20111;-91
2023/10/08 06:54:38;;;;;;;12.98;3.83;;;;;;;;;;5060783;28;20047;-91
2023/10/08 06:57:03;;;;;;;10.05;3.28;;;;;;;;;;5060214;28;20028;-91
2023/10/08 06:59:31;;;;;;;10.98;3.47;;;;;;;;;;5059966;28;20021;-91
2023/10/08 07:01:58;;;;;;;9.88;3.42;;;;;;;;;;5059493;28;20490;-91
2023/10/08 07:04:24;;;;;;;6.15;3.13;;;;;;;;;;5059933;28;20039;-91
2023/10/08 07:06:50;;;;;;;12.75;3.70;;;;;;;;;;5056745;28;20020;-91
2023/10/08 07:09:22;;;;;;;10.85;3.55;;;;;;;;;;5073561;28;20020;-92
2023/10/08 07:11:54;;;;;;;9.70;3.38;;;;;;;;;;5060351;28;20144;-91
2023/10/08 07:14:19;;;;;;;;;;;;;;;;;;5060558;28;20446;-91
2023/10/08 07:16:47;;;;;;;12.68;3.70;;;;;;;;;;5058825;28;20332;-91
2023/10/08 07:19:17;;;;;;;9.73;3.40;;;;;;;;;;5074116;28;20277;-91
2023/10/08 07:21:46;;;;;;;11.07;3.58;;;;;;;;;;5058580;28;20017;-92
2023/10/08 07:24:17;;;;;;;13.23;4.20;;;;;;;;;;5068463;28;20032;-91
2023/10/08 07:26:49;;;;;;;10.02;3.60;;;;;;;;;;5061147;28;20025;-92
2023/10/08 07:29:19;;;;;;;12.00;3.88;;;;;;;;;;5059489;28;20035;-92
2023/10/08 07:31:54;;;;;;;8.32;3.78;;;;;;;;;;5062012;28;20089;-92
2023/10/08 07:34:25;;;;;;;12.90;3.53;;;;;;;;;;5065271;28;20024;-91
2023/10/08 07:36:51;;;;;;;8.67;3.57;;;;;;;;;;5060181;28;20031;-92
2023/10/08 07:39:33;;;;;;;8.13;3.70;;;;;;;;;;5052671;28;20100;-92
2023/10/08 07:42:00;;;;;;;10.05;4.00;;;;;;;;;;5056827;28;20020;-92
2023/10/08 07:44:29;;;;;;;19.40;4.22;;;;;;;;;;5056200;28;20023;-92
2023/10/08 07:46:55;;;;;;;8.02;3.35;;;;;;;;;;5059994;28;20047;-92
2023/10/08 07:49:23;;;;;;;13.25;3.92;;;;;;;;;;5057874;28;20364;-92
2023/10/08 07:51:51;;;;;;;8.95;3.25;;;;;;;;;;5057183;28;20476;-92
2023/10/08 07:54:34;;;;;;;11.77;4.03;;;;;;;;;;5063094;28;20031;-92
2023/10/08 07:57:08;;;;;;;10.15;3.53;;;;;;;;;;5072405;28;20429;-92
2023/10/08 07:59:46;;;;;;;10.98;3.45;;;;;;;;;;5049088;28;20033;-92
2023/10/08 08:02:12;;;;;;;11.32;3.85;;;;;;;;;;5055271;28;20009;-93
2023/10/08 08:04:43;;;;;;;14.15;3.80;;;;;;;;;;5055236;28;20020;-93
2023/10/08 08:07:15;;;;;;;13.05;3.83;;;;;;;;;;5058267;28;20042;-93
2023/10/08 08:09:44;;;;;;;13.93;3.75;;;;;;;;;;5047639;28;20016;-92
2023/10/08 08:12:11;;;;;;;9.38;3.92;;;;;;;;;;5057322;28;20067;-93
2023/10/08 08:14:38;;;;;;;8.07;3.60;;;;;;;;;;5056803;28;20118;-93
2023/10/08 08:17:13;;;;;;;9.27;3.90;;;;;;;;;;5058023;28;20074;-93
2023/10/08 08:19:39;;;;;;;10.85;4.13;;;;;;;;;;5072932;28;20024;-86
2023/10/08 08:22:05;;;;;;;12.35;4.15;;;;;;;;;;5053032;28;20132;-87
2023/10/08 08:24:35;;;;;;;11.50;4.40;;;;;;;;;;5057599;28;20435;-87
2023/10/08 08:27:01;;;;;;;8.77;4.10;;;;;;;;;;5057694;28;20033;-87
2023/10/08 08:29:30;;;;;;;11.95;4.45;;;;;;;;;;5055636;28;20111;-87
2023/10/08 08:31:58;;;;;;;11.32;4.10;;;;;;;;;;5057495;28;20056;-85
2023/10/08 08:34:24;;;;;;;12.48;4.18;;;;;;;;;;5057563;28;20031;-86
2023/10/08 08:36:49;;;;;;;14.40;3.92;;;;;;;;;;5061565;28;20068;-86
2023/10/08 08:39:36;;;;;;;11.25;4.28;;;;;;;;;;5053173;28;20028;-82
2023/10/08 08:42:07;;;;;;;16.15;4.18;;;;;;;;;;5072453;28;20633;-88
2023/10/08 08:44:39;;;;;;;11.80;4.30;;;;;;;;;;5057049;28;20020;-86
2023/10/08 08:47:06;;;;;;;10.32;3.72;;;;;;;;;;5056703;28;20097;-86
2023/10/08 08:49:37;;;;;;;15.10;3.92;;;;;;;;;;5056009;28;20521;-86
2023/10/08 08:52:05;;;;;;;11.70;4.18;;;;;;;;;;5053636;28;20025;-85
2023/10/08 08:54:31;;;;;;;15.30;4.28;;;;;;;;;;5073206;28;20024;-86
2023/10/08 08:57:04;;;;;;;15.70;4.50;;;;;;;;;;5055094;28;20119;-85
2023/10/08 08:59:30;;;;;;;14.02;4.45;;;;;;;;;;5055355;28;20048;-86
2023/10/08 09:01:57;;;;;;;9.98;4.03;;;;;;;;;;5054877;28;20051;-86
2023/10/08 09:04:30;;;;;;;14.57;4.07;;;;;;;;;;5055119;28;20524;-86
2023/10/08 09:06:55;;;;;;;17.92;3.70;;;;;;;;;;5055662;28;20103;-86
2023/10/08 09:09:24;;;;;;;9.27;3.00;;;;;;;;;;5054540;28;20047;-85
2023/10/08 09:11:52;;;;;;;11.18;3.53;;;;;;;;;;5043744;28;20103;-86
2023/10/08 09:14:29;;;;;;;12.38;4.25;;;;;;;;;;5071646;28;20060;-85
2023/10/08 09:16:54;;;;;;;17.20;4.35;;;;;;;;;;5054958;28;20448;-86
2023/10/08 09:19:22;;;;;;;15.00;4.40;;;;;;;;;;5054686;28;20056;-85
2023/10/08 09:22:06;;;;;;;11.68;4.25;;;;;;;;;;5054456;28;20119;-86
2023/10/08 09:24:39;;;;;;;12.93;3.95;;;;;;;;;;5050306;28;20021;-86
2023/10/08 09:27:04;;;;;;;13.77;4.78;;;;;;;;;;5054541;28;20555;-86
2023/10/08 09:29:31;;;;;;;13.98;4.70;;;;;;;;;;5055080;28;20055;-86
2023/10/08 09:31:56;;;;;;;10.90;4.60;;;;;;;;;;5052757;28;20086;-85
2023/10/08 09:34:26;;;;;;;11.48;4.10;;;;;;;;;;5088504;28;20036;-85
2023/10/08 09:36:53;;;;;;;9.13;4.05;;;;;;;;;;5073950;28;20020;-85
2023/10/08 09:39:23;;;;;;;15.27;4.28;;;;;;;;;;5055651;28;20473;-86
2023/10/08 09:41:53;;;;;;;11.57;3.90;;;;;;;;;;5056999;28;20483;-86
2023/10/08 09:44:19;;;;;;;13.90;4.10;;;;;;;;;;5048097;28;20020;-86
2023/10/08 09:46:47;;;;;;;11.40;4.30;;;;;;;;;;5073624;28;20387;-84
2023/10/08 09:49:13;;;;;;;12.90;4.82;;;;;;;;;;5054712;28;20040;-85
2023/10/08 09:51:40;;;;;;;14.05;4.88;;;;;;;;;;5055463;28;20028;-87
2023/10/08 09:54:10;;;;;;;13.95;4.93;;;;;;;;;;5055174;28;20405;-87
2023/10/08 09:56:36;;;;;;;17.60;6.13;;;;;;;;;;5055987;28;20050;-88
2023/10/08 09:59:01;;;;;;;16.17;4.88;;;;;;;;;;5055372;28;20040;-88
2023/10/08 10:01:27;;;;;;;12.80;4.32;;;;;;;;;;5056009;28;20017;-88
2023/10/08 10:03:59;;;;;;;13.57;4.85;;;;;;;;;;5055270;28;20035;-90
2023/10/08 10:06:25;;;;;;;13.98;4.55;;;;;;;;;;5055148;28;20019;-88
2023/10/08 10:08:50;;;;;;;12.60;4.97;;;;;;;;;;5055174;28;20464;-88
2023/10/08 10:11:18;;;;;;;12.40;4.18;;;;;;;;;;5055728;28;20112;-88
2023/10/08 10:13:50;;;;;;;19.00;5.47;;;;;;;;;;5055120;28;20037;-88
2023/10/08 10:16:21;;;;;;;21.90;5.32;;;;;;;;;;5055148;28;20119;-88
2023/10/08 10:18:48;;;;;;;21.00;5.18;;;;;;;;;;5055359;28;20107;-88
2023/10/08 10:21:15;;;;;;;19.25;4.80;;;;;;;;;;5055115;28;20050;-88
2023/10/08 10:23:44;;;;;;;15.77;5.57;;;;;;;;;;5057959;28;20013;-89
2023/10/08 10:26:30;;;;;;;14.07;4.35;;;;;;;;;;5059146;28;20055;-88
2023/10/08 10:29:10;;;;;;;15.13;4.90;;;;;;;;;;5076070;28;20038;-88
2023/10/08 10:31:38;;;;;;;11.43;4.50;;;;;;;;;;5058807;28;20429;-88
2023/10/08 10:34:04;;;;;;;13.95;5.05;;;;;;;;;;5058181;28;20483;-89
2023/10/08 10:36:31;;;;;;;14.85;4.15;;;;;;;;;;5059376;28;20025;-88
2023/10/08 10:39:05;;;;;;;13.13;4.20;;;;;;;;;;5059650;28;20017;-87
2023/10/08 10:41:51;;;;;;;12.98;4.82;;;;;;;;;;5058646;28;20016;-88
2023/10/08 10:44:16;;;;;;;15.85;5.97;;;;;;;;;;5057298;28;20162;-88
2023/10/08 10:46:42;;;;;;;10.95;4.28;;;;;;;;;;5058997;28;20455;-88
2023/10/08 10:49:30;;;;;;;13.90;4.93;;;;;;;;;;5059292;28;20024;-88
2023/10/08 10:51:58;;;;;;;20.55;5.28;;;;;;;;;;5077171;28;20095;-88
2023/10/08 10:54:24;;;;;;;16.60;5.28;;;;;;;;;;5059661;28;20023;-88
2023/10/08 10:57:16;;;;;;;15.05;4.80;;;;;;;;;;5059314;28;20463;-88
2023/10/08 10:59:52;;;;;;;20.33;4.95;;;;;;;;;;5059676;28;20021;-89
2023/10/08 11:02:42;;;;;;;16.20;5.20;;;;;;;;;;5058771;28;20074;-88
2023/10/08 11:05:08;;;;;;;20.02;5.30;;;;;;;;;;5049077;28;20024;-88
2023/10/08 11:07:41;;;;;;;17.63;5.40;;;;;;;;;;5058271;28;21315;-88
2023/10/08 11:10:10;;;;;;;21.50;5.97;;;;;;;;;;5058674;28;20486;-86
2023/10/08 11:12:46;;;;;;;15.10;5.32;;;;;;;;;;5058020;28;20387;-88
2023/10/08 11:15:15;;;;;;;19.05;5.88;;;;;;;;;;5057205;28;20187;-88
2023/10/08 11:17:41;;;;;;;19.88;6.47;;;;;;;;;;5057618;28;20106;-88
2023/10/08 11:20:23;;;;;;;14.27;5.47;;;;;;;;;;5058058;28;20021;-88
2023/10/08 11:22:51;;;;;;;19.38;5.10;;;;;;;;;;5057540;28;20154;-88
2023/10/08 11:25:23;;;;;;;12.82;5.03;;;;;;;;;;5057420;28;20025;-88
2023/10/08 11:27:48;;;;;;;;;;;;;;;;;;5058584;28;20055;-87
2023/10/08 11:30:17;;;;;;;19.95;4.57;;;;;;;;;;5075768;28;19904;-88
2023/10/08 11:32:48;;;;;;;12.95;4.70;;;;;;;;;;5057014;28;20285;-88
2023/10/08 11:35:18;;;;;;;16.27;5.00;;;;;;;;;;5077509;28;20071;-88
2023/10/08 11:37:45;;;;;;;19.35;6.32;;;;;;;;;;5057931;28;20028;-88
2023/10/08 11:40:28;;;;;;;12.98;3.80;;;;;;;;;;5057858;28;20020;-88
2023/10/08 11:42:56;;;;;;;15.85;4.65;;;;;;;;;;5057997;28;20533;-88
2023/10/08 11:45:25;;;;;;;17.20;4.68;;;;;;;;;;5056971;28;20320;-88
2023/10/08 11:48:02;;;;;;;14.40;5.97;;;;;;;;;;5047829;28;20029;-88
2023/10/08 11:50:33;;;;;;;15.95;4.93;;;;;;;;;;5057417;28;20021;-88
2023/10/08 11:53:02;;;;;;;17.48;5.55;;;;;;;;;;5058201;28;20069;-87
2023/10/08 11:55:29;;;;;;;13.77;4.68;;;;;;;;;;5057900;28;20479;-88
2023/10/08 11:57:54;;;;;;;17.88;5.13;;;;;;;;;;5058318;28;20468;-88
2023/10/08 12:00:20;;;;;;;11.73;4.18;;;;;;;;;;5059274;28;20024;-88
2023/10/08 12:02:49;;;;;;;17.60;5.25;;;;;;;;;;5058461;28;20690;-88
2023/10/08 12:05:23;;;;;;;12.77;4.47;;;;;;;;;;5091799;28;20624;-88
2023/10/08 12:07:50;;;;;;;14.95;4.75;;;;;;;;;;5058270;28;20024;-88
2023/10/08 12:10:25;;;;;;;10.15;4.18;;;;;;;;;;5075641;28;20056;-88
2023/10/08 12:12:54;;;;;;;13.32;4.30;;;;;;;;;;5057162;28;20036;-88
2023/10/08 12:15:20;;;;;;;14.13;3.42;;;;;;;;;;5058195;28;20324;-88
2023/10/08 12:20:34;;;;;;;13.85;5.20;;;;;;;;;;5075707;28;20074;-88
2023/10/08 12:22:59;;;;;;;17.50;5.75;;;;;;;;;;5073812;28;20043;-88
2023/10/08 12:25:25;;;;;;;10.35;3.95;;;;;;;;;;5057889;28;20024;-88
2023/10/08 12:27:50;;;;;;;24.35;5.85;;;;;;;;;;5074617;28;20020;-88
2023/10/08 12:30:18;;;;;;;10.38;3.97;;;;;;;;;;5057331;28;20105;-88
2023/10/08 12:32:46;;;;;;;12.88;4.25;;;;;;;;;;5056325;28;20036;-88
2023/10/08 12:35:14;;;;;;;13.25;4.55;;;;;;;;;;5057078;28;20028;-88
2023/10/08 12:37:39;;;;;;;21.58;5.85;;;;;;;;;;5057210;28;20028;-86
2023/10/08 12:40:12;;;;;;;16.52;5.05;;;;;;;;;;5056569;28;20039;-88
2023/10/08 12:42:38;;;;;;;18.10;5.28;;;;;;;;;;5056043;28;20035;-88
2023/10/08 12:45:11;;;;;;;20.73;5.68;;;;;;;;;;5056534;28;20134;-88
2023/10/08 12:47:37;;;;;;;21.10;5.20;;;;;;;;;;5057330;28;20047;-88
2023/10/08 12:50:07;;;;;;;12.88;3.70;;;;;;;;;;5074827;28;20020;-89
2023/10/08 12:52:34;;;;;;;16.67;4.65;;;;;;;;;;5056952;28;20024;-88
2023/10/08 12:55:03;;;;;;;15.88;5.03;;;;;;;;;;5056232;28;20064;-88
2023/10/08 12:57:32;;;;;;;13.60;5.18;;;;;;;;;;5056488;28;20544;-86
2023/10/08 13:00:03;;;;;;;14.73;5.35;;;;;;;;;;5056761;28;20035;-88
2023/10/08 13:02:28;;;;;;;12.48;4.07;;;;;;;;;;5042905;28;20408;-88
2023/10/08 13:04:59;;;;;;;14.73;5.20;;;;;;;;;;5056590;28;20468;-88
2023/10/08 13:07:26;;;;;;;16.35;4.88;;;;;;;;;;5057241;28;20111;-87
2023/10/08 13:09:51;;;;;;;12.75;4.13;;;;;;;;;;5057262;28;20025;-88
2023/10/08 13:12:17;;;;;;;15.57;4.63;;;;;;;;;;5057828;28;20054;-88
2023/10/08 13:14:44;;;;;;;10.70;3.88;;;;;;;;;;5074711;28;20444;-88
2023/10/08 13:17:10;;;;;;;22.88;4.82;;;;;;;;;;5056798;28;20016;-88
2023/10/08 13:19:39;;;;;;;22.08;4.40;;;;;;;;;;5056307;28;20031;-88
2023/10/08 13:22:07;;;;;;;11.27;3.70;;;;;;;;;;5056596;28;20020;-88
2023/10/08 13:24:34;;;;;;;18.75;4.50;;;;;;;;;;5056044;28;20121;-88
2023/10/08 13:27:06;;;;;;;19.08;4.45;;;;;;;;;;5074068;28;20020;-88
2023/10/08 13:29:32;;;;;;;12.50;3.65;;;;;;;;;;5054256;28;20029;-88
2023/10/08 13:31:58;;;;;;;15.00;4.65;;;;;;;;;;5055893;28;20040;-88
2023/10/08 13:34:23;;;;;;;13.50;4.05;;;;;;;;;;5055867;28;20353;-88
2023/10/08 13:36:49;;;;;;;11.57;4.00;;;;;;;;;;5055774;28;20025;-88
2023/10/08 13:39:23;;;;;;;18.08;4.30;;;;;;;;;;5055476;28;20036;-88
2023/10/08 13:41:49;;;;;;;13.05;4.82;;;;;;;;;;5055447;28;20013;-88
2023/10/08 13:44:14;;;;;;;14.07;3.88;;;;;;;;;;5056012;28;20023;-88
2023/10/08 13:46:44;;;;;;;19.98;4.00;;;;;;;;;;5055496;28;20099;-88
2023/10/08 13:49:10;;;;;;;15.98;4.32;;;;;;;;;;5055199;28;20033;-88
2023/10/08 13:51:37;;;;;;;16.67;3.88;;;;;;;;;;5054981;28;20119;-88
2023/10/08 13:54:06;;;;;;;20.63;4.63;;;;;;;;;;5055478;28;20135;-88
2023/10/08 13:56:31;;;;;;;12.25;3.70;;;;;;;;;;5054988;28;20027;-88
2023/10/08 13:59:04;;;;;;;14.00;3.80;;;;;;;;;;5055137;28;20025;-88
2023/10/08 14:01:35;;;;;;;13.15;4.55;;;;;;;;;;5055472;28;20043;-88
2023/10/08 14:04:05;;;;;;;9.20;4.28;;;;;;;;;;5055508;28;20437;-87
2023/10/08 14:06:31;;;;;;;12.48;4.78;;;;;;;;;;5055431;28;20020;-88
2023/10/08 14:08:56;;;;;;;23.02;4.97;;;;;;;;;;5055564;28;20026;-88
2023/10/08 14:11:29;;;;;;;12.88;3.92;;;;;;;;;;5055357;28;20021;-88
2023/10/08 14:13:55;;;;;;;10.32;4.03;;;;;;;;;;5088981;28;20036;-87
2023/10/08 14:16:23;;;;;;;13.55;3.47;;;;;;;;;;5055661;28;20020;-88
2023/10/08 14:18:53;;;;;;;21.67;4.30;;;;;;;;;;5056025;28;20107;-88
2023/10/08 14:21:23;;;;;;;12.48;3.90;;;;;;;;;;5055414;28;20017;-88
2023/10/08 14:23:48;;;;;;;11.88;3.80;;;;;;;;;;5056183;28;20024;-88
2023/10/08 14:26:15;;;;;;;12.00;4.18;;;;;;;;;;5055735;28;20100;-88
2023/10/08 14:28:43;;;;;;;12.60;3.72;;;;;;;;;;5056343;28;20055;-88
2023/10/08 14:31:15;;;;;;;9.80;3.58;;;;;;;;;;5055365;28;20078;-88
2023/10/08 14:34:18;;;;;;;17.10;4.07;;;;;;;;;;5055550;28;20074;-88
2023/10/08 14:45:18;;;;;;;11.70;3.53;;;;;;;;;;5069594;28;20543;-88
2023/10/08 14:47:44;;;;;;;16.90;4.32;;;;;;;;;;5055167;28;20047;-88
2023/10/08 14:50:16;;;;;;;11.82;3.67;;;;;;;;;;5054713;28;20724;-88
2023/10/08 14:52:42;;;;;;;13.88;3.83;;;;;;;;;;5053584;28;20035;-88
2023/10/08 14:55:07;;;;;;;13.88;4.25;;;;;;;;;;5072544;28;20033;-88
2023/10/08 14:57:32;;;;;;;13.88;4.10;;;;;;;;;;5054924;28;20074;-88
2023/10/08 14:59:58;;;;;;;13.02;3.80;;;;;;;;;;5054403;28;20480;-88
2023/10/08 15:02:29;;;;;;;17.52;3.92;;;;;;;;;;5054507;28;20028;-88
2023/10/08 15:04:55;;;;;;;12.40;4.28;;;;;;;;;;5054723;28;20021;-88
2023/10/08 15:07:20;;;;;;;15.68;4.72;;;;;;;;;;5054711;28;20020;-88
2023/10/08 15:09:46;;;;;;;15.13;4.03;;;;;;;;;;5058957;28;20383;-86
2023/10/08 15:12:11;;;;;;;11.68;4.22;;;;;;;;;;5057866;28;20028;-88
2023/10/08 15:14:38;;;;;;;20.23;4.60;;;;;;;;;;5076272;28;20444;-88
2023/10/08 15:17:03;;;;;;;12.13;4.35;;;;;;;;;;5058388;28;20082;-88
2023/10/08 15:19:29;;;;;;;12.00;3.88;;;;;;;;;;5057878;28;20021;-88
2023/10/08 15:21:54;;;;;;;13.77;3.75;;;;;;;;;;5057906;28;20015;-88
2023/10/08 15:24:23;;;;;;;15.20;3.75;;;;;;;;;;5057960;28;20024;-88
2023/10/08 15:26:49;;;;;;;14.25;4.45;;;;;;;;;;5058253;28;20049;-88
2023/10/08 15:29:15;;;;;;;18.30;4.07;;;;;;;;;;5058454;28;20020;-88
2023/10/08 15:31:41;;;;;;;15.57;3.88;;;;;;;;;;5056889;28;20381;-88
2023/10/08 15:34:06;;;;;;;12.10;4.07;;;;;;;;;;5057647;28;20600;-87
2023/10/08 15:36:32;;;;;;;11.38;3.83;;;;;;;;;;5057475;28;20024;-88
2023/10/08 15:38:58;;;;;;;14.02;3.80;;;;;;;;;;5058332;28;20035;-88
2023/10/08 15:41:23;;;;;;;11.85;4.30;;;;;;;;;;5057900;28;20017;-88
2023/10/08 15:43:54;;;;;;;13.10;4.32;;;;;;;;;;5057536;28;20074;-88
2023/10/08 15:46:19;;;;;;;12.35;3.97;;;;;;;;;;5057766;28;20025;-88
2023/10/08 15:48:45;;;;;;;13.48;3.65;;;;;;;;;;5058118;28;20373;-88